| time (UTC) | temp F | wind direction | speed knots | gust knots | rain 1hr in | rain 24hr in | rain mn in | humidity % | barometer mb |
| 20260507144113 | 60 | 332 | 5.2 | 8.7 | 0.00 | 0.62 | 0.23 | 71 | 1014.6 |
| 20260507143113 | 60 | 38 | 6.1 | 9.6 | 0.00 | 0.62 | 0.23 | 71 | 1014.7 |
| 20260507142113 | 61 | 12 | 3.5 | 5.2 | 0.00 | 0.62 | 0.23 | 72 | 1014.6 |
| 20260507141113 | 61 | 9 | 4.3 | 7.0 | 0.00 | 0.62 | 0.23 | 74 | 1014.6 |
| 20260507140113 | 60 | 17 | 3.5 | 7.0 | 0.00 | 0.62 | 0.23 | 72 | 1014.7 |
| 20260507135113 | 61 | 18 | 2.6 | 6.1 | 0.00 | 0.63 | 0.23 | 73 | 1014.7 |
| 20260507134113 | 60 | 26 | 4.3 | 7.0 | 0.00 | 0.63 | 0.23 | 74 | 1014.9 |
| 20260507133113 | 60 | 346 | 4.3 | 6.1 | 0.00 | 0.63 | 0.23 | 73 | 1014.9 |
| 20260507131113 | 59 | 29 | 4.3 | 8.7 | 0.00 | 0.63 | 0.23 | 76 | 1014.9 |
| 20260507130112 | 59 | 60 | 5.2 | 11.3 | 0.00 | 0.63 | 0.23 | 78 | 1014.9 |
| 20260507125112 | 59 | 33 | 4.3 | 10.4 | 0.00 | 0.64 | 0.23 | 78 | 1014.8 |
| 20260507124112 | 58 | 53 | 4.3 | 7.0 | 0.00 | 0.64 | 0.23 | 84 | 1014.8 |
| 20260507123112 | 57 | 10 | 5.2 | 8.7 | 0.00 | 0.64 | 0.23 | 82 | 1014.8 |
| 20260507122112 | 56 | 20 | 4.3 | 8.7 | 0.00 | 0.64 | 0.23 | 83 | 1014.7 |
| 20260507121112 | 56 | 19 | 5.2 | 8.7 | 0.00 | 0.64 | 0.23 | 84 | 1014.7 |
| 20260507120112 | 57 | 30 | 4.3 | 7.0 | 0.00 | 0.64 | 0.23 | 83 | 1014.8 |
| 20260507115112 | 58 | 31 | 6.1 | 9.6 | 0.00 | 0.65 | 0.23 | 81 | 1014.7 |
| 20260507114112 | 58 | 355 | 6.1 | 9.6 | 0.00 | 0.65 | 0.23 | 80 | 1014.7 |
| 20260507113112 | 60 | 308 | 1.7 | 5.2 | 0.00 | 0.65 | 0.23 | 70 | 1014.7 |
| 20260507112112 | 59 | 325 | 1.7 | 3.5 | 0.00 | 0.65 | 0.23 | 72 | 1014.7 |
| 20260507111112 | 58 | 299 | 1.7 | 4.3 | 0.00 | 0.65 | 0.23 | 73 | 1014.8 |
| 20260507110112 | 58 | 284 | 2.6 | 5.2 | 0.00 | 0.65 | 0.23 | 73 | 1015.0 |
| 20260507105111 | 58 | 278 | 1.7 | 6.1 | 0.00 | 0.66 | 0.23 | 76 | 1014.9 |
| 20260507103111 | 58 | 282 | 2.6 | 5.2 | 0.00 | 0.66 | 0.23 | 79 | 1014.9 |
| 20260507102111 | 58 | 290 | 1.7 | 4.3 | 0.00 | 0.66 | 0.23 | 79 | 1014.9 |
| 20260507101111 | 58 | 291 | 2.6 | 5.2 | 0.00 | 0.66 | 0.23 | 79 | 1015.0 |
| 20260507100111 | 57 | 265 | 1.7 | 5.2 | 0.00 | 0.66 | 0.23 | 81 | 1014.8 |
| 20260507095111 | 57 | 256 | 2.6 | 4.3 | 0.00 | 0.66 | 0.23 | 80 | 1014.9 |
| 20260507094111 | 57 | 254 | 1.7 | 2.6 | 0.00 | 0.66 | 0.23 | 80 | 1014.9 |
| 20260507093111 | 56 | 273 | 2.6 | 7.0 | 0.00 | 0.66 | 0.23 | 81 | 1014.9 |
| 20260507092111 | 56 | 208 | 3.5 | 6.1 | 0.00 | 0.66 | 0.23 | 81 | 1014.9 |
| 20260507091111 | 56 | 214 | 1.7 | 5.2 | 0.00 | 0.66 | 0.23 | 83 | 1014.7 |
| 20260507090111 | 55 | 269 | 4.3 | 5.2 | 0.00 | 0.66 | 0.23 | 84 | 1014.7 |
| 20260507085111 | 54 | 180 | 2.6 | 5.2 | 0.00 | 0.66 | 0.23 | 86 | 1014.5 |
| 20260507084111 | 54 | 265 | 1.7 | 4.3 | 0.00 | 0.66 | 0.23 | 85 | 1014.6 |
| 20260507083110 | 53 | 275 | 0.0 | 4.3 | 0.00 | 0.66 | 0.23 | 87 | 1014.6 |
| 20260507082111 | 53 | 224 | 1.7 | 4.3 | 0.00 | 0.66 | 0.23 | 88 | 1014.6 |
| 20260507081110 | 53 | 232 | 2.6 | 5.2 | 0.00 | 0.66 | 0.23 | 88 | 1014.7 |
| 20260507080110 | 53 | 289 | 1.7 | 5.2 | 0.00 | 0.66 | 0.23 | 90 | 1014.6 |
| 20260507075110 | 52 | 270 | 1.7 | 3.5 | 0.00 | 0.66 | 0.23 | 90 | 1014.6 |
| 20260507073110 | 52 | 304 | 0.9 | 4.3 | 0.00 | 0.66 | 0.23 | 91 | 1014.4 |
| 20260507071110 | 51 | 280 | 0.9 | 3.5 | 0.00 | 0.66 | 0.23 | 90 | 1014.3 |
| 20260507070111 | 51 | 256 | 2.6 | 5.2 | 0.00 | 0.66 | 0.23 | 91 | 1014.3 |
| 20260507065111 | 51 | 282 | 0.9 | 4.3 | 0.01 | 0.66 | 0.23 | 92 | 1014.2 |
| 20260507064111 | 51 | 209 | 1.7 | 4.3 | 0.01 | 0.66 | 0.23 | 92 | 1014.2 |
| 20260507063110 | 51 | 205 | 1.7 | 4.3 | 0.01 | 0.66 | 0.23 | 92 | 1014.2 |
| 20260507062110 | 51 | 277 | 2.6 | 4.3 | 0.02 | 0.66 | 0.23 | 92 | 1014.1 |
| 20260507061109 | 51 | 310 | 0.9 | 4.3 | 0.02 | 0.66 | 0.23 | 93 | 1013.9 |
| 20260507060109 | 50 | 285 | 2.6 | 2.6 | 0.02 | 0.66 | 0.23 | 93 | 1013.9 |
| 20260507055109 | 50 | 243 | 1.7 | 4.3 | 0.01 | 0.65 | 0.22 | 93 | 1013.8 |
| 20260507054109 | 50 | 292 | 0.9 | 4.3 | 0.01 | 0.65 | 0.22 | 93 | 1013.7 |
| 20260507053109 | 50 | 275 | 1.7 | 4.3 | 0.01 | 0.65 | 0.22 | 93 | 1013.6 |
| 20260507052109 | 50 | 273 | 2.6 | 5.2 | 0.00 | 0.65 | 0.21 | 93 | 1013.4 |
| 20260507050109 | 50 | 258 | 1.7 | 6.1 | 0.00 | 0.65 | 0.21 | 92 | 1013.1 |
| 20260507045109 | 50 | 254 | 2.6 | 7.0 | 0.00 | 0.65 | 0.21 | 92 | 1012.9 |
| 20260507044109 | 50 | 255 | 0.9 | 4.3 | 0.00 | 0.65 | 0.21 | 93 | 1012.9 |
| 20260507043110 | 50 | 306 | 2.6 | 5.2 | 0.01 | 0.65 | 0.21 | 93 | 1012.9 |
| 20260507042108 | 50 | 171 | 1.7 | 6.1 | 0.01 | 0.65 | 0.21 | 93 | 1012.7 |
| 20260507041108 | 50 | 287 | 0.9 | 4.3 | 0.02 | 0.65 | 0.21 | 93 | 1012.7 |
| 20260507040109 | 50 | 286 | 1.7 | 5.2 | 0.02 | 0.65 | 0.21 | 93 | 1012.8 |
| 20260507035109 | 50 | 251 | 1.7 | 5.2 | 0.02 | 0.65 | 0.21 | 93 | 1012.7 |
| 20260507034109 | 50 | 229 | 1.7 | 5.2 | 0.03 | 0.65 | 0.21 | 93 | 1012.7 |
| 20260507033109 | 50 | 240 | 2.6 | 8.7 | 0.03 | 0.64 | 0.20 | 93 | 1012.7 |
| 20260507031113 | 50 | 184 | 2.6 | 6.1 | 0.05 | 0.63 | 0.20 | 93 | 1012.5 |
| 20260507030113 | 50 | 161 | 4.3 | 11.3 | 0.06 | 0.63 | 0.20 | 93 | 1012.5 |
| 20260507025113 | 49 | 205 | 3.5 | 6.1 | 0.06 | 0.62 | 0.19 | 93 | 1012.3 |
| 20260507024113 | 49 | 205 | 3.5 | 7.0 | 0.06 | 0.61 | 0.18 | 93 | 1012.4 |
| 20260507023113 | 49 | 231 | 2.6 | 5.2 | 0.06 | 0.61 | 0.17 | 93 | 1012.4 |
| 20260507021113 | 49 | 211 | 4.3 | 11.3 | 0.06 | 0.58 | 0.15 | 93 | 1012.2 |
| 20260507020113 | 49 | 147 | 2.6 | 6.1 | 0.06 | 0.57 | 0.14 | 93 | 1011.9 |
| 20260507015112 | 49 | 239 | 2.6 | 6.1 | 0.04 | 0.56 | 0.13 | 93 | 1011.9 |
| 20260507014113 | 49 | 239 | 2.6 | 7.0 | 0.04 | 0.55 | 0.12 | 93 | 1011.6 |
| 20260507013113 | 49 | 235 | 3.5 | 8.7 | 0.03 | 0.54 | 0.11 | 93 | 1011.6 |
| 20260507012113 | 49 | 198 | 2.6 | 6.1 | 0.03 | 0.54 | 0.10 | 92 | 1011.6 |
| 20260507005112 | 49 | 153 | 2.6 | 8.7 | 0.03 | 0.52 | 0.09 | 92 | 1011.5 |
| 20260507004112 | 49 | 229 | 3.5 | 8.7 | 0.03 | 0.51 | 0.08 | 91 | 1011.5 |
| 20260507002112 | 50 | 287 | 2.6 | 10.4 | 0.04 | 0.50 | 0.07 | 91 | 1011.4 |
| 20260507001112 | 50 | 357 | 2.6 | 6.1 | 0.04 | 0.50 | 0.07 | 91 | 1011.5 |
| 20260507000112 | 50 | 258 | 2.6 | 6.1 | 0.04 | 0.50 | 0.06 | 91 | 1011.6 |
| 20260506235112 | 50 | 151 | 2.6 | 6.1 | 0.03 | 0.49 | 0.06 | 90 | 1011.6 |
| 20260506233112 | 50 | 178 | 6.1 | 11.3 | 0.03 | 0.47 | 0.04 | 90 | 1011.7 |
| 20260506232112 | 50 | 179 | 8.7 | 12.2 | 0.02 | 0.46 | 0.03 | 90 | 1011.7 |
| 20260506231112 | 50 | 237 | 6.1 | 12.2 | 0.03 | 0.46 | 0.03 | 90 | 1011.7 |
| 20260506230111 | 50 | 194 | 6.1 | 12.2 | 0.02 | 0.46 | 0.02 | 90 | 1011.7 |
| 20260506224111 | 50 | 172 | 7.0 | 10.4 | 0.02 | 0.45 | 0.02 | 90 | 1011.6 |
| 20260506221112 | 50 | 161 | 3.5 | 13.0 | 0.01 | 0.43 | 0.00 | 90 | 1011.6 |
| 20260506220111 | 50 | 212 | 3.5 | 7.0 | 0.01 | 0.43 | 0.00 | 90 | 1011.4 |
| 20260506215111 | 50 | 198 | 2.6 | 9.6 | 0.01 | 0.43 | 0.43 | 90 | 1011.3 |
| 20260506214111 | 50 | 162 | 5.2 | 13.0 | 0.01 | 0.43 | 0.43 | 90 | 1011.2 |
| 20260506212110 | 51 | 243 | 4.3 | 11.3 | 0.03 | 0.43 | 0.43 | 90 | 1011.1 |
| 20260506211110 | 51 | 216 | 6.1 | 13.0 | 0.04 | 0.43 | 0.43 | 90 | 1011.1 |
| 20260506210110 | 51 | 263 | 7.8 | 13.9 | 0.06 | 0.43 | 0.43 | 91 | 1011.1 |
| 20260506205110 | 51 | 182 | 6.1 | 11.3 | 0.05 | 0.42 | 0.42 | 91 | 1011.0 |
| 20260506204110 | 51 | 267 | 6.1 | 10.4 | 0.06 | 0.42 | 0.42 | 91 | 1011.0 |
| 20260506203110 | 51 | 213 | 5.2 | 11.3 | 0.06 | 0.40 | 0.40 | 91 | 1011.0 |
| 20260506202110 | 51 | 256 | 2.6 | 5.2 | 0.06 | 0.39 | 0.39 | 91 | 1011.0 |
| 20260506201110 | 51 | 250 | 2.6 | 10.4 | 0.06 | 0.39 | 0.39 | 91 | 1011.0 |
| 20260506195110 | 51 | 253 | 2.6 | 5.2 | 0.06 | 0.37 | 0.37 | 91 | 1011.0 |
| 20260506194110 | 51 | 181 | 1.7 | 5.2 | 0.06 | 0.36 | 0.36 | 91 | 1010.8 |
| 20260506193109 | 51 | 146 | 5.2 | 10.4 | 0.06 | 0.35 | 0.35 | 90 | 1010.6 |
| 20260506192109 | 51 | 200 | 5.2 | 9.6 | 0.06 | 0.34 | 0.34 | 91 | 1010.4 |
| 20260506191109 | 51 | 194 | 4.3 | 9.6 | 0.07 | 0.33 | 0.33 | 91 | 1010.4 |
| 20260506190109 | 51 | 205 | 6.1 | 10.4 | 0.08 | 0.32 | 0.32 | 90 | 1010.3 |
| 20260506185110 | 51 | 290 | 7.0 | 11.3 | 0.08 | 0.31 | 0.31 | 91 | 1010.2 |
| 20260506184109 | 51 | 287 | 6.1 | 14.8 | 0.09 | 0.30 | 0.30 | 91 | 1010.2 |
| 20260506183109 | 51 | 209 | 5.2 | 10.4 | 0.09 | 0.29 | 0.29 | 91 | 1010.2 |
| 20260506182109 | 51 | 166 | 7.0 | 12.2 | 0.09 | 0.28 | 0.28 | 91 | 1010.1 |
| 20260506181109 | 51 | 274 | 7.0 | 13.0 | 0.09 | 0.26 | 0.26 | 92 | 1010.0 |
| 20260506180109 | 51 | 217 | 7.0 | 10.4 | 0.09 | 0.24 | 0.24 | 91 | 1009.8 |
| 20260506175109 | 52 | 161 | 5.2 | 9.6 | 0.08 | 0.24 | 0.23 | 92 | 1009.7 |
| 20260506174109 | 52 | 327 | 6.1 | 12.2 | 0.08 | 0.22 | 0.21 | 91 | 1009.5 |
| 20260506173114 | 52 | 186 | 3.5 | 6.1 | 0.09 | 0.20 | 0.20 | 91 | 1009.4 |
| 20260506172114 | 52 | 215 | 3.5 | 11.3 | 0.09 | 0.20 | 0.19 | 91 | 1009.3 |
| 20260506171114 | 52 | 194 | 5.2 | 11.3 | 0.09 | 0.18 | 0.17 | 91 | 1009.2 |
| 20260506170113 | 52 | 204 | 7.8 | 12.2 | 0.08 | 0.17 | 0.16 | 91 | 1009.2 |
| 20260506165114 | 52 | 298 | 7.8 | 12.2 | 0.08 | 0.16 | 0.15 | 90 | 1009.1 |
| 20260506164113 | 52 | 175 | 4.3 | 12.2 | 0.07 | 0.14 | 0.13 | 91 | 1009.1 |
| 20260506163113 | 52 | 242 | 3.5 | 8.7 | 0.06 | 0.12 | 0.11 | 90 | 1009.1 |
| 20260506162113 | 53 | 146 | 4.3 | 10.4 | 0.06 | 0.11 | 0.10 | 90 | 1009.0 |
| 20260506161113 | 53 | 171 | 5.2 | 11.3 | 0.05 | 0.09 | 0.09 | 90 | 1009.1 |
| 20260506160113 | 53 | 97 | 6.1 | 12.2 | 0.04 | 0.09 | 0.08 | 89 | 1009.1 |
| 20260506155113 | 53 | 203 | 6.1 | 10.4 | 0.03 | 0.08 | 0.07 | 89 | 1009.0 |
| 20260506153113 | 53 | 264 | 6.1 | 12.2 | 0.02 | 0.06 | 0.06 | 88 | 1008.8 |
| 20260506151113 | 53 | 206 | 7.8 | 14.8 | 0.00 | 0.05 | 0.04 | 86 | 1008.8 |
| 20260506150112 | 53 | 197 | 6.1 | 13.0 | 0.00 | 0.05 | 0.04 | 86 | 1008.7 |
| 20260506145113 | 53 | 271 | 6.1 | 14.8 | 0.01 | 0.05 | 0.04 | 86 | 1008.7 |